Airfield :
LOGIN :

Register | Disclaimer

   EN    FR    IT 

 










Legend :    VFR   Marginal VFR   IFR   Intensive IFR   Very Intensive IFR
Visi :
Ceiling :
>= 8 km
>= 3000ft
5 to 8 km
1000 to 3000 ft
1500m to 5 km
500 to 1000 ft
800 to 1500m
200 to 500 ft
< 800m
< 200 ft
Symbols :   Thunderstorms  Fog  Heavy snow  Heavy precipitations  Wind > 20 kt
SIGMETs :     Misc.  Thunderstorms  Icing  Turbulence  Mountain Waves  Volcanic Ashes







- Airport Elevation : 1302 ft
- IATA code : GNB
- Download approach charts


LFLS - Grenoble / St. Geoirs

CURRENT METAR :
  • 262300Z AUTO 36008KT 320V050 9999 -RA BKN012 BKN017 BKN048 04/03 Q1014

EXPIRED METARs :
  • 262230Z AUTO 02004KT 9999 -RA BKN013 BKN023 BKN054 04/03 Q1014
  • 262200Z AUTO VRB03KT 9999 -RA BKN012 OVC017 05/03 Q1014
  • 262130Z AUTO 00000KT 9999 -RA OVC013 05/03 Q1014
  • 262100Z AUTO 00000KT 9999 -RA BKN015 BKN023 BKN029 05/03 Q1014
  • 262030Z AUTO VRB01KT 9999 -RA BKN016 BKN022 BKN029 05/03 Q1014

TAF AMD TAF LFLS
Valid from the 26 at 15:00 until the 27 at 15:00 UTC


261506Z 2615/2715 34004KT 9999 BKN020
TEMPO 2615/2705 OVC009
BECMG 2709/2711 34010KT 9999 BKN050
ATIS : +33 4 76 65 55 89
No reported NOTAMs for that airfield.
1 SIGMET reported for the Marseille FIR (LFMM) :
 
Embedded thunderstorms
LFMM SIGMET 1 VALID 262300/270300 LFPW
LFMM MARSEILLE FIR/UIR EMBD TS FCST S OF LINE N4030 E00800 - N3900 E00515 TOP FL350 STNR NC=



MET'MAP, your aeronautical weather chart ! - Copyright ORBIFLY December 2007 - Disclaimer

ORBIFLY MET'MAP TEAM :

Programming & Development : Alexandra Zaïnal
Concept & Development : Baudouin d'Aumeries
Co-Development & Prog : Marc-Olivier Méhu
Technical & hardware support : Manuel Goepfert

Contact : metmap@orbifly.com




SOURCES & CREDITS :

   NOAA